createdAt,value
2017-11-15T00:01:00.631Z,6.46
2017-11-15T00:02:04.189Z,6.31
2017-11-15T00:03:07.669Z,6.44
2017-11-15T00:04:11.162Z,6.53
2017-11-15T00:05:14.672Z,6.60
2017-11-15T00:06:18.187Z,6.63
2017-11-15T00:07:21.966Z,6.69
2017-11-15T00:08:25.944Z,6.73
2017-11-15T00:09:29.437Z,6.72
2017-11-15T00:10:32.942Z,6.54
2017-11-15T00:11:36.471Z,6.55
2017-11-15T00:12:40.043Z,6.40
2017-11-15T00:13:43.977Z,6.56
2017-11-15T00:14:47.530Z,6.72
2017-11-15T00:15:51.092Z,6.64
2017-11-15T00:16:54.803Z,6.51
2017-11-15T00:17:58.486Z,6.68
2017-11-15T00:19:02.066Z,6.50
2017-11-15T00:20:05.989Z,6.09
2017-11-15T00:21:09.594Z,6.58
2017-11-15T00:22:17.534Z,6.30
2017-11-15T00:23:21.126Z,6.60
2017-11-15T00:24:24.706Z,6.76
2017-11-15T00:25:28.254Z,6.79
2017-11-15T00:26:32.151Z,6.83
2017-11-15T00:27:35.715Z,6.91
2017-11-15T00:28:39.326Z,6.96
2017-11-15T00:29:42.958Z,6.87
2017-11-15T00:30:46.524Z,6.57
2017-11-15T00:31:50.039Z,6.37
2017-11-15T00:32:54.082Z,6.42
2017-11-15T00:33:57.867Z,6.38
2017-11-15T00:35:01.701Z,6.56
2017-11-15T00:36:05.318Z,6.57
2017-11-15T00:37:08.903Z,6.61
2017-11-15T00:38:12.573Z,6.69
2017-11-15T00:39:16.482Z,6.66
2017-11-15T00:40:20.071Z,6.75
2017-11-15T00:41:23.716Z,6.64
2017-11-15T00:42:27.427Z,6.79
2017-11-15T00:43:30.993Z,6.83
2017-11-15T00:44:34.571Z,6.69
2017-11-15T00:45:38.406Z,6.43
2017-11-15T00:46:42.034Z,6.86
2017-11-15T00:47:45.710Z,6.93
2017-11-15T00:48:49.452Z,7.07
2017-11-15T00:49:53.124Z,7.21
2017-11-15T00:50:56.698Z,7.03
2017-11-15T00:52:00.654Z,7.01
2017-11-15T00:53:04.273Z,6.69
2017-11-15T00:54:08.024Z,6.85
2017-11-15T00:55:11.622Z,6.84
2017-11-15T00:56:15.226Z,6.63
2017-11-15T00:57:18.826Z,6.62
2017-11-15T00:58:23.034Z,6.47
2017-11-15T00:59:26.645Z,6.89
2017-11-15T01:00:30.233Z,6.86
2017-11-15T01:01:33.786Z,6.77
2017-11-15T01:02:37.443Z,6.93
2017-11-15T01:03:41.052Z,6.53
2017-11-15T01:04:44.946Z,6.98
2017-11-15T01:05:48.511Z,7.01
2017-11-15T01:06:52.107Z,6.95
2017-11-15T01:07:55.678Z,7.08
2017-11-15T01:08:59.248Z,6.78
2017-11-15T01:10:02.936Z,6.35
2017-11-15T01:11:06.859Z,6.73
2017-11-15T01:12:10.336Z,6.65
2017-11-15T01:13:13.836Z,6.86
2017-11-15T01:14:17.342Z,7.07
2017-11-15T01:15:20.814Z,6.87
2017-11-15T01:16:24.395Z,6.85
2017-11-15T01:17:28.298Z,7.13
2017-11-15T01:18:31.938Z,6.99
2017-11-15T01:19:35.522Z,6.90
2017-11-15T01:20:39.151Z,7.39
2017-11-15T01:21:42.745Z,7.33
2017-11-15T01:22:46.316Z,7.38
2017-11-15T01:23:50.287Z,7.25
2017-11-15T01:24:53.903Z,6.99
2017-11-15T01:25:57.523Z,7.00
2017-11-15T01:27:01.097Z,6.99
2017-11-15T01:28:04.706Z,6.89
2017-11-15T01:29:08.309Z,6.90
2017-11-15T01:30:12.175Z,6.52
2017-11-15T01:31:15.740Z,7.20
2017-11-15T01:32:19.340Z,7.24
2017-11-15T01:33:22.894Z,6.97
2017-11-15T01:34:26.479Z,7.05
2017-11-15T01:35:30.049Z,7.12
2017-11-15T01:36:33.986Z,7.21
2017-11-15T01:37:37.590Z,7.43
2017-11-15T01:38:41.192Z,7.42
2017-11-15T01:39:44.779Z,7.60
2017-11-15T01:40:48.360Z,7.76
2017-11-15T01:41:51.935Z,7.68
2017-11-15T01:42:55.788Z,7.74
2017-11-15T01:43:59.593Z,7.82
2017-11-15T01:45:03.210Z,7.88
2017-11-15T01:46:06.845Z,7.89
2017-11-15T01:47:10.410Z,7.90
2017-11-15T01:48:14.011Z,7.88
2017-11-15T01:49:17.918Z,7.84
2017-11-15T01:50:24.335Z,7.94
2017-11-15T01:51:27.966Z,7.91
2017-11-15T01:52:31.548Z,7.82
2017-11-15T01:53:35.175Z,7.74
2017-11-15T01:54:38.765Z,7.45
2017-11-15T01:55:42.632Z,7.58
2017-11-15T01:56:46.372Z,7.76
2017-11-15T01:57:49.972Z,7.51
2017-11-15T01:58:53.662Z,7.54
2017-11-15T01:59:57.392Z,7.45
2017-11-15T02:01:07.342Z,7.26
2017-11-15T02:02:12.462Z,7.32
2017-11-15T02:03:16.006Z,7.25
2017-11-15T02:04:19.682Z,7.17
2017-11-15T02:05:23.237Z,7.50
2017-11-15T02:06:26.790Z,7.08
2017-11-15T02:07:30.702Z,7.04
2017-11-15T02:08:34.298Z,7.03
2017-11-15T02:09:37.871Z,7.27
2017-11-15T02:10:41.547Z,7.51
2017-11-15T02:11:45.165Z,7.51
2017-11-15T02:12:48.706Z,7.67
2017-11-15T02:13:52.776Z,7.73
2017-11-15T02:14:56.378Z,7.75
2017-11-15T02:15:59.942Z,7.85
2017-11-15T02:17:05.246Z,7.93
2017-11-15T02:18:08.711Z,7.87
2017-11-15T02:19:12.309Z,7.83
2017-11-15T02:20:16.313Z,7.72
2017-11-15T02:21:19.918Z,7.99
2017-11-15T02:22:23.503Z,7.89
2017-11-15T02:23:27.728Z,7.89
2017-11-15T02:24:31.302Z,7.93
2017-11-15T02:25:34.871Z,7.92
2017-11-15T02:26:38.771Z,7.77
2017-11-15T02:27:42.375Z,7.74
2017-11-15T02:28:45.916Z,7.50
2017-11-15T02:29:50.428Z,7.45
2017-11-15T02:30:53.928Z,7.53
2017-11-15T02:31:57.421Z,7.47
2017-11-15T02:33:03.845Z,6.98
2017-11-15T02:34:07.605Z,7.04
2017-11-15T02:35:11.371Z,6.91
2017-11-15T02:36:15.093Z,6.98
2017-11-15T02:37:18.559Z,6.93
2017-11-15T02:38:22.604Z,6.94
2017-11-15T02:39:26.551Z,6.98
2017-11-15T02:40:30.235Z,6.97
2017-11-15T02:41:33.880Z,7.19
2017-11-15T02:42:37.534Z,7.21
2017-11-15T02:43:41.151Z,7.27
2017-11-15T02:44:44.757Z,7.20
2017-11-15T02:45:48.653Z,7.11
2017-11-15T02:46:52.277Z,7.13
2017-11-15T02:47:55.845Z,7.19
2017-11-15T02:48:59.480Z,7.10
2017-11-15T02:50:03.102Z,7.03
2017-11-15T02:51:06.640Z,7.11
2017-11-15T02:52:10.459Z,7.04
2017-11-15T02:53:13.988Z,7.27
2017-11-15T02:54:17.511Z,7.37
2017-11-15T02:55:21.046Z,7.41
2017-11-15T02:56:24.625Z,7.52
2017-11-15T02:59:49.689Z,7.01
2017-11-15T03:00:53.499Z,7.03
2017-11-15T03:01:57.107Z,7.05
2017-11-15T03:03:00.759Z,7.08
2017-11-15T03:04:04.400Z,7.27
2017-11-15T03:05:08.253Z,7.49
2017-11-15T03:06:11.868Z,7.50
2017-11-15T03:07:15.511Z,7.53
2017-11-15T03:08:19.159Z,7.33
2017-11-15T03:09:22.793Z,7.14
2017-11-15T03:10:26.400Z,7.19
2017-11-15T03:11:30.313Z,6.91
2017-11-15T03:12:33.927Z,6.78
2017-11-15T03:13:37.543Z,7.23
2017-11-15T03:14:41.189Z,7.38
2017-11-15T03:15:44.822Z,7.48
2017-11-15T03:16:48.464Z,7.55
2017-11-15T03:17:52.536Z,7.59
2017-11-15T03:18:56.757Z,7.61
2017-11-15T03:20:00.390Z,7.61
2017-11-15T03:21:08.108Z,7.66
2017-11-15T03:22:11.721Z,7.65
2017-11-15T03:23:15.389Z,7.41
2017-11-15T03:24:19.411Z,7.71
2017-11-15T03:25:23.043Z,7.72
2017-11-15T03:26:26.792Z,7.69
2017-11-15T03:27:30.427Z,7.69
2017-11-15T03:28:34.033Z,7.64
2017-11-15T03:29:37.781Z,7.70
2017-11-15T03:30:41.729Z,7.83
2017-11-15T03:31:45.346Z,7.83
2017-11-15T03:32:48.994Z,7.83
2017-11-15T03:33:52.627Z,7.81
2017-11-15T03:34:56.345Z,7.95
2017-11-15T03:36:00.031Z,7.85
2017-11-15T03:37:03.977Z,7.99
2017-11-15T03:47:47.942Z,7.98
2017-11-15T03:50:05.812Z,6.40
2017-11-15T03:51:09.633Z,7.07
2017-11-15T03:52:13.304Z,7.33
2017-11-15T03:53:16.970Z,7.40
2017-11-15T03:54:20.591Z,7.58
2017-11-15T03:55:24.474Z,7.71
2017-11-15T03:56:28.237Z,7.79
2017-11-15T03:57:31.761Z,7.78
2017-11-15T03:58:35.215Z,7.81
2017-11-15T03:59:38.852Z,7.92
2017-11-15T04:00:42.483Z,8.01
2017-11-15T04:01:46.340Z,8.04
2017-11-15T04:02:49.967Z,7.94
2017-11-15T04:03:53.515Z,7.93
2017-11-15T04:04:57.061Z,8.05
2017-11-15T04:06:00.861Z,8.00
2017-11-15T04:07:05.153Z,8.20
2017-11-15T04:08:08.992Z,8.18
2017-11-15T04:09:12.369Z,7.91
2017-11-15T04:10:15.906Z,8.05
2017-11-15T04:11:20.295Z,8.15
2017-11-15T04:12:23.955Z,7.75
2017-11-15T04:13:27.624Z,8.12
2017-11-15T04:14:31.547Z,8.16
2017-11-15T04:15:35.214Z,8.15
2017-11-15T04:16:38.742Z,7.83
2017-11-15T04:17:42.352Z,7.89
2017-11-15T04:18:45.993Z,8.23
2017-11-15T04:19:49.411Z,8.32
2017-11-15T04:20:53.167Z,8.30
2017-11-15T04:21:56.554Z,8.25
2017-11-15T04:23:00.048Z,8.29
2017-11-15T04:24:03.589Z,8.34
2017-11-15T04:25:07.204Z,8.30
2017-11-15T04:26:10.834Z,8.13
2017-11-15T04:27:14.760Z,8.15
2017-11-15T04:28:18.393Z,7.77
2017-11-15T04:29:22.123Z,8.14
2017-11-15T04:30:25.763Z,8.00
2017-11-15T04:31:29.393Z,7.73
2017-11-15T04:32:33.080Z,7.85
2017-11-15T04:33:37.065Z,7.90
2017-11-15T04:34:40.764Z,7.85
2017-11-15T04:35:44.490Z,7.68
2017-11-15T04:36:48.221Z,7.60
2017-11-15T04:37:51.875Z,7.46
2017-11-15T04:38:55.565Z,7.39
2017-11-15T04:39:59.543Z,7.66
2017-11-15T04:41:03.195Z,7.58
2017-11-15T04:42:06.839Z,7.44
2017-11-15T04:43:10.555Z,7.59
2017-11-15T04:44:14.361Z,7.80
2017-11-15T04:45:18.115Z,7.84
2017-11-15T04:46:22.031Z,7.93
2017-11-15T04:47:25.837Z,7.87
2017-11-15T04:48:29.568Z,8.06
2017-11-15T04:49:33.322Z,8.04
2017-11-15T04:50:36.956Z,8.17
2017-11-15T04:51:40.663Z,8.18
2017-11-15T04:52:44.582Z,8.13
2017-11-15T04:53:48.242Z,8.06
2017-11-15T04:54:51.910Z,7.84
2017-11-15T04:55:55.565Z,8.15
2017-11-15T04:56:59.276Z,8.17
2017-11-15T04:58:02.898Z,8.19
2017-11-15T04:59:06.859Z,8.12
2017-11-15T05:00:10.573Z,8.11
2017-11-15T05:01:14.338Z,8.28
2017-11-15T05:02:18.026Z,8.04
2017-11-15T05:03:21.776Z,8.03
2017-11-15T05:04:26.050Z,8.12
2017-11-15T05:05:30.046Z,8.13
2017-11-15T05:06:33.670Z,8.12
2017-11-15T05:07:37.311Z,7.83
2017-11-15T05:08:40.965Z,8.09
2017-11-15T05:09:44.593Z,8.06
2017-11-15T05:10:48.236Z,8.07
2017-11-15T05:11:52.230Z,8.04
2017-11-15T05:12:55.876Z,8.11
2017-11-15T05:13:59.554Z,8.16
2017-11-15T05:15:03.218Z,8.32
2017-11-15T05:16:06.908Z,8.36
2017-11-15T05:17:10.531Z,8.40
2017-11-15T05:18:14.542Z,8.30
2017-11-15T05:19:18.219Z,8.32
2017-11-15T05:20:21.817Z,8.34
2017-11-15T05:21:25.505Z,8.42
2017-11-15T05:22:29.139Z,8.42
2017-11-15T05:23:32.815Z,7.87
2017-11-15T05:24:36.851Z,7.58
2017-11-15T05:25:40.493Z,8.25
2017-11-15T05:26:44.136Z,8.31
2017-11-15T05:27:47.830Z,8.33
2017-11-15T05:28:51.451Z,8.38
2017-11-15T05:29:55.126Z,8.39
2017-11-15T05:30:59.067Z,8.46
2017-11-15T05:32:02.707Z,8.43
2017-11-15T05:33:06.354Z,8.31
2017-11-15T05:34:09.998Z,8.42
2017-11-15T05:35:13.649Z,8.12
2017-11-15T05:36:17.237Z,8.13
2017-11-15T05:37:21.171Z,8.34
2017-11-15T05:38:24.806Z,7.84
2017-11-15T05:39:28.433Z,8.20
2017-11-15T05:40:32.066Z,8.12
2017-11-15T05:41:35.953Z,8.15
2017-11-15T05:42:39.485Z,8.07
2017-11-15T05:43:43.335Z,8.25
2017-11-15T05:44:46.703Z,8.34
2017-11-15T05:45:50.177Z,8.42
2017-11-15T05:46:53.559Z,8.49
2017-11-15T05:47:57.040Z,8.48
2017-11-15T05:49:00.722Z,8.49
2017-11-15T05:50:04.675Z,8.39
2017-11-15T05:51:08.290Z,8.11
2017-11-15T05:52:11.906Z,8.27
2017-11-15T05:53:15.501Z,8.23
2017-11-15T05:54:19.129Z,8.10
2017-11-15T05:55:22.717Z,7.87
2017-11-15T05:56:26.726Z,7.90
2017-11-15T05:57:30.416Z,7.71
2017-11-15T05:58:33.881Z,7.46
2017-11-15T06:00:50.279Z,7.37
2017-11-15T06:01:53.980Z,7.22
2017-11-15T06:02:57.549Z,7.23
2017-11-15T06:04:01.101Z,7.36
2017-11-15T06:05:05.144Z,7.35
2017-11-15T06:06:08.792Z,7.09
2017-11-15T06:07:12.459Z,7.28
2017-11-15T06:08:16.425Z,7.14
2017-11-15T06:09:20.248Z,7.08
2017-11-15T06:10:23.991Z,6.84
2017-11-15T06:11:27.732Z,7.01
2017-11-15T06:12:31.656Z,6.74
2017-11-15T06:13:35.333Z,7.13
2017-11-15T06:14:39.547Z,7.32
2017-11-15T06:15:43.357Z,7.50
2017-11-15T06:16:46.920Z,7.27
2017-11-15T06:17:51.720Z,7.25
2017-11-15T06:18:55.228Z,7.34
2017-11-15T06:19:58.855Z,6.97
2017-11-15T06:21:02.808Z,7.23
2017-11-15T06:22:06.375Z,7.39
2017-11-15T06:23:10.189Z,7.49
2017-11-15T06:24:13.975Z,7.63
2017-11-15T06:25:18.663Z,7.78
2017-11-15T06:26:22.524Z,7.80
2017-11-15T06:27:26.823Z,7.71
2017-11-15T06:28:30.427Z,7.79
2017-11-15T06:29:34.084Z,7.64
2017-11-15T06:30:37.625Z,7.40
2017-11-15T06:31:41.254Z,7.39
2017-11-15T06:32:44.889Z,6.86
2017-11-15T06:33:49.052Z,7.22
2017-11-15T06:34:53.576Z,7.29
2017-11-15T06:35:57.265Z,7.37
2017-11-15T06:37:00.888Z,7.19
2017-11-15T06:38:04.604Z,7.32
2017-11-15T06:39:08.253Z,6.99
2017-11-15T06:40:12.367Z,7.47
2017-11-15T06:41:16.048Z,7.55
2017-11-15T06:42:19.702Z,7.65
2017-11-15T06:43:24.336Z,7.85
2017-11-15T06:44:27.991Z,7.76
2017-11-15T06:45:31.765Z,7.95
2017-11-15T06:46:35.665Z,7.86
2017-11-15T06:47:39.349Z,8.19
2017-11-15T06:48:43.014Z,8.23
2017-11-15T06:49:46.661Z,8.26
2017-11-15T06:50:50.312Z,8.10
2017-11-15T06:51:54.016Z,8.46
2017-11-15T06:52:58.142Z,8.32
2017-11-15T06:54:01.789Z,8.29
2017-11-15T06:55:05.492Z,8.17
2017-11-15T06:56:09.152Z,8.36
2017-11-15T06:57:12.838Z,8.04
2017-11-15T06:58:16.496Z,8.38
2017-11-15T06:59:20.714Z,8.51
2017-11-15T07:00:24.359Z,8.56
2017-11-15T07:01:28.316Z,8.52
2017-11-15T07:02:32.091Z,8.50
2017-11-15T07:03:35.858Z,8.39
2017-11-15T07:04:39.634Z,7.93
2017-11-15T07:05:43.663Z,8.34
2017-11-15T07:06:47.397Z,8.03
2017-11-15T07:07:51.139Z,8.28
2017-11-15T07:08:54.911Z,8.51
2017-11-15T07:09:58.638Z,8.62
2017-11-15T07:11:02.340Z,8.39
2017-11-15T07:12:06.422Z,8.16
2017-11-15T07:13:10.708Z,8.50
2017-11-15T07:14:14.365Z,8.52
2017-11-15T07:15:18.711Z,8.52
2017-11-15T07:16:22.481Z,8.58
2017-11-15T07:17:26.168Z,8.50
2017-11-15T07:18:30.425Z,8.43
2017-11-15T07:19:34.014Z,8.65
2017-11-15T07:20:37.792Z,8.77
2017-11-15T07:21:41.297Z,8.79
2017-11-15T07:22:44.872Z,8.58
2017-11-15T07:23:48.368Z,8.71
2017-11-15T07:24:52.511Z,8.68
2017-11-15T07:25:56.161Z,7.86
2017-11-15T07:26:59.852Z,8.67
2017-11-15T07:28:03.553Z,8.69
2017-11-15T07:29:07.216Z,8.52
2017-11-15T07:30:10.904Z,8.59
2017-11-15T07:31:14.887Z,8.64
2017-11-15T07:32:18.507Z,8.67
2017-11-15T07:33:22.179Z,8.77
2017-11-15T07:34:25.867Z,8.82
2017-11-15T07:35:29.585Z,8.89
2017-11-15T07:36:33.260Z,8.87
2017-11-15T07:37:37.192Z,8.41
2017-11-15T07:38:40.859Z,8.01
2017-11-15T07:39:44.527Z,8.00
2017-11-15T07:40:48.263Z,7.90
2017-11-15T07:41:51.959Z,8.05
2017-11-15T07:42:55.652Z,7.96
2017-11-15T07:43:59.616Z,7.85
2017-11-15T07:45:03.208Z,7.72
2017-11-15T07:46:06.875Z,7.43
2017-11-15T07:47:10.461Z,7.79
2017-11-15T07:48:14.063Z,7.67
2017-11-15T07:49:17.642Z,7.42
2017-11-15T07:50:21.710Z,7.82
2017-11-15T07:51:25.410Z,8.10
2017-11-15T07:52:29.146Z,7.98
2017-11-15T07:53:32.838Z,7.61
2017-11-15T07:54:36.456Z,8.55
2017-11-15T07:55:40.815Z,8.68
2017-11-15T07:56:44.859Z,8.75
2017-11-15T07:57:48.665Z,8.84
2017-11-15T07:58:52.317Z,8.60
2017-11-15T07:59:55.818Z,8.07
2017-11-15T08:00:59.357Z,8.76
2017-11-15T08:02:03.045Z,8.83
2017-11-15T08:04:26.230Z,8.70
2017-11-15T08:05:29.864Z,8.94
2017-11-15T08:06:33.599Z,8.95
2017-11-15T08:07:37.283Z,8.98
2017-11-15T08:08:40.957Z,8.91
2017-11-15T08:09:45.020Z,8.64
2017-11-15T08:10:48.769Z,8.29
2017-11-15T08:11:52.408Z,8.43
2017-11-15T08:12:56.084Z,8.48
2017-11-15T08:14:03.317Z,8.22
2017-11-15T08:15:07.364Z,8.60
2017-11-15T08:16:11.144Z,8.47
2017-11-15T08:17:14.964Z,8.28
2017-11-15T08:18:18.853Z,8.56
2017-11-15T08:19:23.411Z,8.62
2017-11-15T08:20:27.481Z,8.54
2017-11-15T08:21:31.408Z,8.62
2017-11-15T08:22:35.625Z,8.75
2017-11-15T08:23:39.285Z,8.28
2017-11-15T08:26:02.013Z,8.73
2017-11-15T08:27:05.743Z,8.50
2017-11-15T08:28:09.883Z,8.35
2017-11-15T08:29:13.494Z,7.82
2017-11-15T08:30:17.186Z,8.58
2017-11-15T08:31:20.858Z,8.66
2017-11-15T08:32:24.557Z,8.80
2017-11-15T08:33:28.255Z,8.96
2017-11-15T08:34:32.390Z,9.02
2017-11-15T08:35:36.212Z,9.09
2017-11-15T08:36:39.870Z,9.03
2017-11-15T08:37:43.485Z,9.05
2017-11-15T08:38:47.368Z,9.11
2017-11-15T08:39:51.153Z,9.15
2017-11-15T08:40:55.193Z,9.06
2017-11-15T08:41:58.851Z,8.85
2017-11-15T08:43:02.676Z,8.97
2017-11-15T08:44:06.359Z,8.97
2017-11-15T08:45:10.054Z,9.01
2017-11-15T08:46:13.767Z,9.03
2017-11-15T08:47:17.903Z,9.03
2017-11-15T08:48:21.551Z,8.75
2017-11-15T08:49:25.285Z,8.59
2017-11-15T08:50:28.887Z,8.59
2017-11-15T08:51:32.577Z,8.23
2017-11-15T08:52:36.299Z,8.34
2017-11-15T08:53:40.468Z,8.37
2017-11-15T08:54:44.400Z,8.17
2017-11-15T08:55:48.151Z,7.84
2017-11-15T08:56:51.954Z,7.95
2017-11-15T08:57:55.715Z,7.91
2017-11-15T08:58:59.553Z,7.86
2017-11-15T09:01:50.561Z,8.25
2017-11-15T09:02:54.265Z,8.11
2017-11-15T09:03:58.074Z,7.97
2017-11-15T09:05:01.814Z,8.85
2017-11-15T09:06:05.682Z,8.76
2017-11-15T09:07:09.900Z,8.52
2017-11-15T09:08:13.686Z,8.66
2017-11-15T09:09:17.532Z,8.44
2017-11-15T09:10:21.450Z,8.85
2017-11-15T09:11:25.315Z,8.97
2017-11-15T09:12:29.063Z,8.71
2017-11-15T09:13:33.237Z,8.71
2017-11-15T09:14:36.990Z,8.59
2017-11-15T09:15:40.886Z,8.52
2017-11-15T09:16:45.079Z,8.44
2017-11-15T09:17:48.846Z,8.46
2017-11-15T09:18:52.569Z,8.40
2017-11-15T09:19:57.095Z,8.07
2017-11-15T09:21:01.032Z,8.18
2017-11-15T09:22:04.807Z,8.36
2017-11-15T09:23:08.629Z,7.82
2017-11-15T09:24:12.415Z,8.62
2017-11-15T09:25:16.239Z,8.96
2017-11-15T09:26:20.536Z,8.34
2017-11-15T09:27:24.289Z,9.05
2017-11-15T09:28:30.871Z,8.14
2017-11-15T09:29:34.665Z,8.81
2017-11-15T09:30:38.684Z,8.97
2017-11-15T09:31:42.446Z,8.81
2017-11-15T09:32:46.562Z,8.87
2017-11-15T09:33:50.354Z,8.68
2017-11-15T09:34:54.236Z,8.52
2017-11-15T09:35:58.004Z,9.02
2017-11-15T09:37:02.332Z,9.27
2017-11-15T09:38:06.124Z,9.41
2017-11-15T09:39:10.202Z,9.53
2017-11-15T09:40:14.130Z,9.49
2017-11-15T09:41:17.887Z,9.28
2017-11-15T09:42:22.096Z,9.52
2017-11-15T09:43:25.946Z,9.70
2017-11-15T09:44:29.805Z,9.71
2017-11-15T09:45:34.149Z,9.92
2017-11-15T09:46:38.069Z,9.94
2017-11-15T09:47:41.895Z,9.97
2017-11-15T09:48:45.820Z,9.94
2017-11-15T09:49:49.841Z,9.97
2017-11-15T09:50:54.313Z,10.05
2017-11-15T09:51:58.819Z,9.61
2017-11-15T09:53:03.200Z,10.19
2017-11-15T09:54:06.996Z,10.16
2017-11-15T09:55:10.811Z,9.25
2017-11-15T09:56:15.840Z,9.86
2017-11-15T09:57:20.123Z,9.12
2017-11-15T09:58:24.404Z,9.61
2017-11-15T09:59:28.285Z,9.44
2017-11-15T10:00:32.138Z,9.26
2017-11-15T10:01:36.360Z,9.05
2017-11-15T10:02:40.567Z,9.09
2017-11-15T10:03:44.558Z,8.41
2017-11-15T10:04:48.661Z,9.06
2017-11-15T10:05:52.826Z,9.02
2017-11-15T10:06:56.662Z,8.72
2017-11-15T10:08:00.564Z,8.99
2017-11-15T10:09:04.948Z,9.10
2017-11-15T10:10:08.811Z,9.17
2017-11-15T10:11:12.847Z,9.35
2017-11-15T10:12:16.863Z,9.30
2017-11-15T10:13:20.728Z,9.44
2017-11-15T10:14:24.627Z,9.60
2017-11-15T10:15:28.497Z,9.77
2017-11-15T10:16:32.397Z,9.64
2017-11-15T10:17:37.175Z,9.52
2017-11-15T10:18:41.030Z,9.51
2017-11-15T10:19:44.816Z,9.16
2017-11-15T10:20:48.689Z,9.07
2017-11-15T10:21:53.347Z,8.85
2017-11-15T10:22:57.252Z,8.89
2017-11-15T10:24:01.425Z,9.13
2017-11-15T10:25:05.305Z,9.11
2017-11-15T10:26:09.132Z,9.00
2017-11-15T10:27:12.907Z,9.10
2017-11-15T10:28:17.057Z,9.15
2017-11-15T10:29:20.861Z,9.36
2017-11-15T10:30:25.155Z,9.36
2017-11-15T10:31:29.053Z,9.58
2017-11-15T10:32:32.930Z,9.65
2017-11-15T10:33:36.782Z,9.97
2017-11-15T10:34:40.621Z,10.17
2017-11-15T10:35:45.033Z,9.66
2017-11-15T10:36:48.856Z,9.67
2017-11-15T10:37:52.711Z,9.08
2017-11-15T10:38:56.594Z,9.42
2017-11-15T10:40:00.440Z,9.23
2017-11-15T10:41:04.307Z,8.98
2017-11-15T10:42:08.513Z,9.56
2017-11-15T10:43:12.397Z,9.73
2017-11-15T10:44:16.223Z,9.56
2017-11-15T10:45:20.185Z,9.23
2017-11-15T10:46:24.065Z,9.23
2017-11-15T10:47:27.986Z,9.23
2017-11-15T10:48:32.295Z,9.40
2017-11-15T10:49:36.172Z,9.40
2017-11-15T10:50:40.074Z,9.62
2017-11-15T10:51:44.011Z,9.90
2017-11-15T10:52:47.978Z,10.16
2017-11-15T10:53:51.904Z,9.99
2017-11-15T10:54:56.380Z,10.13
2017-11-15T10:56:00.334Z,10.17
2017-11-15T10:57:04.280Z,10.10
2017-11-15T10:58:08.224Z,10.01
2017-11-15T10:59:13.004Z,10.11
2017-11-15T11:00:17.589Z,9.99
2017-11-15T11:01:21.560Z,9.99
2017-11-15T11:02:25.548Z,9.94
2017-11-15T11:03:29.499Z,9.99
2017-11-15T11:04:33.451Z,10.26
2017-11-15T11:05:37.402Z,10.44
2017-11-15T11:06:41.375Z,10.47
2017-11-15T11:07:45.696Z,10.21
2017-11-15T11:08:49.555Z,10.41
2017-11-15T11:09:53.383Z,10.55
2017-11-15T11:10:57.217Z,10.35
2017-11-15T11:12:01.094Z,10.75
2017-11-15T11:13:05.078Z,10.48
2017-11-15T11:14:09.029Z,11.10
2017-11-15T11:15:13.152Z,11.13
2017-11-15T11:16:17.982Z,11.02
2017-11-15T11:17:21.852Z,10.92
2017-11-15T11:18:25.689Z,10.59
2017-11-15T11:19:29.868Z,10.19
2017-11-15T11:20:33.754Z,10.46
2017-11-15T11:21:37.601Z,10.66
2017-11-15T11:22:41.500Z,10.77
2017-11-15T11:23:45.440Z,10.53
2017-11-15T11:24:49.309Z,10.43
2017-11-15T11:25:53.671Z,10.49
2017-11-15T11:26:57.528Z,10.46
2017-11-15T11:28:01.373Z,10.47
2017-11-15T11:29:05.107Z,10.49
2017-11-15T11:30:09.513Z,10.09
2017-11-15T11:31:13.285Z,10.37
2017-11-15T11:32:17.430Z,10.23
2017-11-15T11:33:21.296Z,9.84
2017-11-15T11:34:25.080Z,10.00
2017-11-15T11:35:29.327Z,10.28
2017-11-15T11:36:33.064Z,10.08
2017-11-15T11:37:36.920Z,10.28
2017-11-15T11:38:40.775Z,10.40
2017-11-15T11:39:44.537Z,10.48
2017-11-15T11:40:48.255Z,10.25
2017-11-15T11:41:52.069Z,9.99
2017-11-15T11:42:55.857Z,10.07
2017-11-15T11:43:59.922Z,9.85
2017-11-15T11:45:03.695Z,9.89
2017-11-15T11:46:07.946Z,9.85
2017-11-15T11:47:11.633Z,9.87
2017-11-15T11:48:15.256Z,9.98
2017-11-15T11:49:18.956Z,10.07
2017-11-15T11:50:22.998Z,9.92
2017-11-15T11:51:26.851Z,9.68
2017-11-15T11:52:30.731Z,9.63
2017-11-15T11:53:34.527Z,10.61
2017-11-15T11:54:38.316Z,10.72
2017-11-15T11:55:42.119Z,10.63
2017-11-15T11:56:46.441Z,10.46
2017-11-15T11:57:50.209Z,10.36
2017-11-15T11:58:54.052Z,9.72
2017-11-15T11:59:57.799Z,10.50
2017-11-15T12:01:01.630Z,10.50
2017-11-15T12:02:05.402Z,10.22
2017-11-15T12:03:10.880Z,10.31
2017-11-15T12:04:14.760Z,10.27
2017-11-15T12:05:18.776Z,10.57
2017-11-15T12:06:22.598Z,10.31
2017-11-15T12:07:26.460Z,9.56
2017-11-15T12:08:30.292Z,10.55
2017-11-15T12:09:34.623Z,10.92
2017-11-15T12:10:38.496Z,10.86
2017-11-15T12:11:42.442Z,11.03
2017-11-15T12:12:46.237Z,10.84
2017-11-15T12:13:50.033Z,10.96
2017-11-15T12:14:53.836Z,11.12
2017-11-15T12:15:58.146Z,11.17
2017-11-15T12:17:02.066Z,11.29
2017-11-15T12:18:05.886Z,11.52
2017-11-15T12:19:09.945Z,11.62
2017-11-15T12:20:13.826Z,11.07
2017-11-15T12:21:17.634Z,10.36
2017-11-15T12:22:21.926Z,10.73
2017-11-15T12:23:25.811Z,11.18
2017-11-15T12:24:29.687Z,10.90
2017-11-15T12:25:33.558Z,10.77
2017-11-15T12:26:37.455Z,10.79
2017-11-15T12:27:41.406Z,10.99
2017-11-15T12:28:45.535Z,10.73
2017-11-15T12:29:49.508Z,10.66
2017-11-15T12:30:53.518Z,10.32
2017-11-15T12:31:57.511Z,10.68
2017-11-15T12:33:01.384Z,10.28
2017-11-15T12:34:05.320Z,10.57
2017-11-15T12:35:09.584Z,10.76
2017-11-15T12:36:13.631Z,9.92
2017-11-15T12:37:17.505Z,10.49
2017-11-15T12:38:21.430Z,10.44
2017-11-15T12:39:25.257Z,10.57
2017-11-15T12:40:29.068Z,10.71
2017-11-15T12:41:33.385Z,10.33
2017-11-15T12:42:37.929Z,10.79
2017-11-15T12:43:41.717Z,10.45
2017-11-15T12:44:45.638Z,10.28
2017-11-15T12:45:49.455Z,10.25
2017-11-15T12:46:53.327Z,10.70
2017-11-15T12:47:57.447Z,10.42
2017-11-15T12:49:01.031Z,10.04
2017-11-15T12:50:05.448Z,10.33
2017-11-15T12:51:09.085Z,9.34
2017-11-15T12:52:12.872Z,9.95
2017-11-15T12:53:16.976Z,9.87
2017-11-15T12:54:21.078Z,9.27
2017-11-15T12:55:24.823Z,9.80
2017-11-15T12:56:28.563Z,9.86
2017-11-15T12:57:32.650Z,9.84
2017-11-15T12:58:36.343Z,9.77
2017-11-15T12:59:40.609Z,9.80
2017-11-15T13:00:44.313Z,9.82
2017-11-15T13:01:48.100Z,9.87
2017-11-15T13:02:53.073Z,10.18
2017-11-15T13:03:57.296Z,10.12
2017-11-15T13:05:01.634Z,10.49
2017-11-15T13:06:07.837Z,10.08
2017-11-15T13:07:11.938Z,10.45
2017-11-15T13:08:15.833Z,9.47
2017-11-15T13:09:19.738Z,10.25
2017-11-15T13:10:23.733Z,10.07
2017-11-15T13:11:27.636Z,9.97
2017-11-15T13:12:31.896Z,9.94
2017-11-15T13:13:35.727Z,10.16
2017-11-15T13:14:39.551Z,10.27
2017-11-15T13:15:43.456Z,10.43
2017-11-15T13:16:47.376Z,10.62
2017-11-15T13:17:51.402Z,10.14
2017-11-15T13:18:55.626Z,10.32
2017-11-15T13:19:59.437Z,9.99
2017-11-15T13:21:03.292Z,10.08
2017-11-15T13:22:07.156Z,10.13
2017-11-15T13:23:10.967Z,10.28
2017-11-15T13:24:14.755Z,10.37
2017-11-15T13:25:18.960Z,10.39
2017-11-15T13:26:22.786Z,9.88
2017-11-15T13:27:26.838Z,10.77
2017-11-15T13:28:30.584Z,10.92
2017-11-15T13:29:34.542Z,11.03
2017-11-15T13:30:38.428Z,10.64
2017-11-15T13:31:42.658Z,11.03
2017-11-15T13:32:46.896Z,10.92
2017-11-15T13:33:50.735Z,10.97
2017-11-15T13:34:54.728Z,10.98
2017-11-15T13:35:58.663Z,11.07
2017-11-15T13:37:02.494Z,10.83
2017-11-15T13:38:06.553Z,11.20
2017-11-15T13:39:10.424Z,11.27
2017-11-15T13:40:14.447Z,11.12
2017-11-15T13:41:19.307Z,10.97
2017-11-15T13:42:23.356Z,10.66
2017-11-15T13:43:27.182Z,10.47
2017-11-15T13:44:31.326Z,10.76
2017-11-15T13:45:35.211Z,10.68
2017-11-15T13:46:39.088Z,10.96
2017-11-15T13:47:42.827Z,10.71
2017-11-15T13:48:46.740Z,11.09
2017-11-15T13:49:50.676Z,11.18
2017-11-15T13:50:54.880Z,11.25
2017-11-15T13:51:58.695Z,11.28
2017-11-15T13:53:02.605Z,11.18
2017-11-15T13:54:06.994Z,11.23
2017-11-15T13:55:10.743Z,11.17
2017-11-15T13:56:14.474Z,11.26
2017-11-15T13:57:18.641Z,11.18
2017-11-15T13:58:22.413Z,10.90
2017-11-15T13:59:26.179Z,10.66
2017-11-15T14:00:30.036Z,10.63
2017-11-15T14:01:33.839Z,10.08
2017-11-15T14:02:37.656Z,10.81
2017-11-15T14:03:41.700Z,10.89
2017-11-15T14:04:45.462Z,10.88
2017-11-15T14:05:49.220Z,11.03
2017-11-15T14:06:52.949Z,11.04
2017-11-15T14:07:56.700Z,11.04
2017-11-15T14:09:01.110Z,11.19
2017-11-15T14:10:05.113Z,10.99
2017-11-15T14:11:08.797Z,11.03
2017-11-15T14:12:12.572Z,11.19
2017-11-15T14:13:16.324Z,11.26
2017-11-15T14:14:20.092Z,11.28
2017-11-15T14:15:23.842Z,11.30
2017-11-15T14:16:27.901Z,11.32
2017-11-15T14:17:31.546Z,11.26
2017-11-15T14:18:35.148Z,11.37
2017-11-15T14:19:38.823Z,11.32
2017-11-15T14:20:42.411Z,11.24
2017-11-15T14:21:46.116Z,11.31
2017-11-15T14:22:50.469Z,11.13